Time;durP1;ratioP1;P1;durP2;ratioP2;P2;SDS_P1;SDS_P2;PMS_P1;PMS_P2;Temp;Humidity;BMP_temperature;BMP_pressure;BME280_temperature;BME280_humidity;BME280_pressure;Samples;Min_cycle;Max_cycle;Signal;HPM_P1;HPM_P2
2022/12/17 13:07:29;;;;;;;125.50;33.30;;;;;;;-2.79;96.45;99287.86;213675;1312;22598;-76
2022/12/17 13:12:41;;;;;;;122.30;33.40;;;;;;;-2.87;96.64;99292.20;213569;1312;22529;-74
2022/12/17 13:17:59;;;;;;;130.20;35.00;;;;;;;-2.94;96.87;99297.95;213927;1312;24282;-76
2022/12/17 13:23:28;;;;;;;118.90;31.40;;;;;;;-2.96;96.83;99299.05;213921;1312;22476;-76
2022/12/17 13:28:38;;;;;;;116.20;29.50;;;;;;;-2.93;96.77;99306.42;213831;1312;24315;-76
2022/12/17 13:33:59;;;;;;;115.00;31.60;;;;;;;-2.86;96.76;99314.84;213814;1312;22468;-76
2022/12/17 13:39:13;;;;;;;;;;;;;;;-2.83;96.63;99315.15;213734;1311;22464;-75
2022/12/17 13:44:29;;;;;;;110.40;27.80;;;;;;;-2.81;96.77;99325.21;213885;1307;22631;-77
2022/12/17 13:49:31;;;;;;;119.60;29.30;;;;;;;-2.87;96.61;99335.11;213884;1312;22669;-75
2022/12/17 13:54:33;;;;;;;110.20;30.90;;;;;;;-2.98;96.52;99342.84;213560;1312;22501;-75
2022/12/17 13:59:35;;;;;;;111.80;29.90;;;;;;;-3.09;96.70;99355.41;213756;1312;25507;-74
2022/12/17 14:04:37;;;;;;;127.70;32.90;;;;;;;-3.20;96.98;99360.08;213493;1312;25432;-76
2022/12/17 14:09:42;;;;;;;114.80;31.50;;;;;;;-3.32;97.14;99363.55;213803;1312;24418;-75
2022/12/17 14:14:51;;;;;;;110.70;27.70;;;;;;;-3.44;96.81;99372.50;213893;1312;22953;-77
2022/12/17 14:20:01;;;;;;;114.60;32.20;;;;;;;-3.56;96.71;99384.48;213848;1306;22558;-78
2022/12/17 14:25:12;;;;;;;120.20;30.10;;;;;;;-3.67;97.20;99397.80;213922;1297;22630;-75
2022/12/17 14:30:23;;;;;;;117.80;29.70;;;;;;;-3.75;97.17;99408.84;213903;1312;22673;-76
2022/12/17 14:35:29;;;;;;;100.80;26.90;;;;;;;-3.85;97.30;99413.88;213669;1311;22500;-76
2022/12/17 14:40:31;;;;;;;111.00;25.30;;;;;;;-3.93;97.47;99417.27;213803;1312;22581;-74
2022/12/17 14:46:19;;;;;;;123.20;29.20;;;;;;;-4.03;97.61;99420.18;213853;1304;22741;-76
2022/12/17 14:50:55;;;;;;;94.70;25.60;;;;;;;-4.09;97.59;99432.60;213844;1312;26257;-77
2022/12/17 14:55:58;;;;;;;106.20;24.60;;;;;;;-4.16;97.50;99434.42;213843;1311;22725;-76
2022/12/17 15:01:07;;;;;;;83.10;21.50;;;;;;;-4.23;97.59;99439.23;213631;1312;25496;-76
2022/12/17 15:06:15;;;;;;;109.30;25.30;;;;;;;-4.32;97.68;99451.31;213952;1312;22611;-75
2022/12/17 15:11:20;;;;;;;101.50;26.40;;;;;;;-4.41;97.81;99453.90;213849;1312;23008;-76
2022/12/17 15:16:23;;;;;;;101.40;23.80;;;;;;;-4.47;97.68;99462.80;213791;1312;23076;-76
2022/12/17 15:21:25;;;;;;;89.00;23.20;;;;;;;-4.51;97.87;99469.80;213579;1312;22652;-75
2022/12/17 15:26:27;;;;;;;90.90;24.90;;;;;;;-4.56;97.89;99481.42;213609;1311;22552;-75
2022/12/17 15:31:29;;;;;;;95.80;24.90;;;;;;;-4.59;97.85;99492.42;213674;1301;25470;-76
2022/12/17 15:36:36;;;;;;;103.60;25.20;;;;;;;-4.61;97.93;99497.56;213701;1312;23877;-76
2022/12/17 15:46:58;;;;;;;92.00;22.30;;;;;;;-4.65;98.18;99509.25;213767;1312;23072;-76
2022/12/17 15:52:00;;;;;;;90.00;22.50;;;;;;;-4.67;98.16;99517.92;213620;1312;25565;-75
2022/12/17 15:57:02;;;;;;;94.10;26.10;;;;;;;-4.68;98.05;99528.77;213865;1312;24491;-75
2022/12/17 16:02:05;;;;;;;89.50;25.30;;;;;;;-4.68;98.14;99538.35;213647;1312;22916;-76
2022/12/17 16:07:07;;;;;;;81.40;21.30;;;;;;;-4.67;98.20;99546.24;213606;1312;23184;-75
2022/12/17 16:12:09;;;;;;;93.30;22.80;;;;;;;-4.69;98.20;99546.98;213707;1312;22507;-76
2022/12/17 16:17:12;;;;;;;88.20;24.40;;;;;;;-4.70;98.03;99553.91;213839;1312;23256;-76
2022/12/17 16:22:13;;;;;;;89.10;20.20;;;;;;;-4.72;97.98;99554.02;213881;1312;25511;-76
2022/12/17 16:27:16;;;;;;;85.90;22.50;;;;;;;-4.75;98.42;99561.65;213950;1312;23323;-75
2022/12/17 16:32:18;;;;;;;89.50;21.40;;;;;;;-4.77;98.23;99568.00;213855;1312;23996;-76
2022/12/17 16:37:20;;;;;;;109.60;24.20;;;;;;;-4.78;98.07;99575.75;213888;1312;25756;-75
2022/12/17 16:42:22;;;;;;;86.90;22.00;;;;;;;-4.78;97.97;99577.55;213893;1312;25506;-76
2022/12/17 16:47:25;;;;;;;99.30;23.00;;;;;;;-4.80;98.02;99587.61;213810;1312;24367;-75
2022/12/17 16:52:27;;;;;;;79.60;20.60;;;;;;;-4.83;97.84;99591.22;213592;1312;22554;-75
2022/12/17 16:57:29;;;;;;;94.50;23.90;;;;;;;-4.86;97.92;99603.61;213875;1300;22541;-74
2022/12/17 17:02:31;;;;;;;93.20;24.50;;;;;;;-4.90;98.04;99600.19;213642;1312;22532;-75
2022/12/17 17:07:33;;;;;;;65.40;16.30;;;;;;;-4.91;97.99;99606.30;213955;1312;22488;-75
2022/12/17 17:12:35;;;;;;;81.60;20.00;;;;;;;-4.94;97.90;99614.38;213577;1312;22586;-75
2022/12/17 17:17:37;;;;;;;75.40;19.80;;;;;;;-4.95;97.84;99627.73;213629;1312;24192;-76
2022/12/17 17:22:56;;;;;;;86.10;21.10;;;;;;;-4.98;97.94;99631.08;213780;1311;25492;-76
2022/12/17 17:27:58;;;;;;;83.60;22.40;;;;;;;-5.02;98.01;99638.59;213698;1312;25554;-75
2022/12/17 17:33:00;;;;;;;70.30;18.60;;;;;;;-5.06;97.97;99645.27;213863;1312;25492;-74
2022/12/17 17:38:02;;;;;;;79.70;23.20;;;;;;;-5.07;98.05;99655.81;213642;1312;25498;-75
2022/12/17 17:43:03;;;;;;;69.50;19.60;;;;;;;-5.07;97.92;99656.73;213686;1300;22612;-75
2022/12/17 17:48:05;;;;;;;89.30;22.80;;;;;;;-5.10;98.15;99668.36;213841;1312;24283;-77
2022/12/17 17:53:07;;;;;;;74.30;19.60;;;;;;;-5.11;98.13;99676.52;213612;1312;22834;-75
2022/12/17 17:58:09;;;;;;;83.20;20.50;;;;;;;-5.13;98.08;99687.18;213814;1311;22504;-75
2022/12/17 18:03:11;;;;;;;62.80;18.10;;;;;;;-5.14;98.27;99692.13;213829;1311;25693;-75
2022/12/17 18:08:13;;;;;;;83.80;21.30;;;;;;;-5.13;98.19;99708.77;213752;1312;24294;-75
2022/12/17 18:18:36;;;;;;;98.30;25.30;;;;;;;-5.11;98.30;99723.04;213848;1312;24379;-73
2022/12/17 18:23:39;;;;;;;86.90;23.30;;;;;;;-5.08;98.32;99730.54;213992;1312;24282;-76
2022/12/17 18:28:43;;;;;;;82.00;23.60;;;;;;;-5.07;98.17;99737.38;213759;1309;22691;-76
2022/12/17 18:33:47;;;;;;;74.60;20.50;;;;;;;-5.07;98.12;99744.33;213704;1312;27924;-76
2022/12/17 18:38:57;;;;;;;59.60;18.90;;;;;;;-5.12;97.87;99746.79;213672;1312;24352;-75
2022/12/17 18:44:02;;;;;;;54.40;16.80;;;;;;;-5.19;97.71;99754.99;214083;1312;24311;-75
2022/12/17 18:49:08;;;;;;;55.40;16.70;;;;;;;-5.21;97.74;99758.13;213642;1312;22546;-75
2022/12/17 18:54:15;;;;;;;48.30;15.10;;;;;;;-5.21;97.74;99763.59;213604;1312;22538;-75
2022/12/17 18:59:21;;;;;;;53.20;16.00;;;;;;;-5.22;97.79;99771.36;213778;1312;22585;-76
2022/12/17 19:04:31;;;;;;;57.10;17.00;;;;;;;-5.23;97.75;99774.48;213883;1312;22747;-75
2022/12/17 19:09:34;;;;;;;74.60;20.00;;;;;;;-5.21;97.68;99784.19;213707;1309;23977;-76
2022/12/17 19:14:36;;;;;;;65.00;19.20;;;;;;;-5.21;97.88;99793.86;213813;1312;26609;-76
2022/12/17 19:19:38;;;;;;;73.10;19.40;;;;;;;-5.26;97.53;99799.30;213862;1312;22879;-75
2022/12/17 19:24:40;;;;;;;61.40;17.70;;;;;;;-5.28;97.75;99806.81;213869;1312;22596;-75
2022/12/17 19:29:41;;;;;;;62.50;17.70;;;;;;;-5.26;97.89;99813.58;213783;1312;22651;-76
2022/12/17 19:34:50;;;;;;;59.70;17.30;;;;;;;-5.23;98.01;99822.11;213781;1312;22911;-76
2022/12/17 19:39:52;;;;;;;57.10;18.30;;;;;;;-5.21;97.93;99820.52;213556;1312;22669;-76
2022/12/17 19:44:55;;;;;;;52.40;15.50;;;;;;;-5.24;97.53;99826.09;213899;1311;25535;-75
2022/12/17 19:49:57;;;;;;;64.70;17.20;;;;;;;-5.23;97.63;99834.32;213772;1312;22557;-75
2022/12/17 19:55:00;;;;;;;65.50;17.80;;;;;;;-5.20;98.06;99837.83;213620;1311;24667;-75
2022/12/17 20:00:03;;;;;;;65.70;18.00;;;;;;;-5.17;98.01;99850.23;213613;1312;22716;-75
2022/12/17 20:05:13;;;;;;;66.30;17.70;;;;;;;-5.13;97.98;99859.33;213874;1310;24208;-75
2022/12/17 20:10:15;;;;;;;58.30;16.30;;;;;;;-5.09;97.92;99867.59;213742;1299;22587;-76
2022/12/17 20:15:17;;;;;;;70.10;17.90;;;;;;;-5.08;97.71;99876.55;213790;1312;23863;-75
2022/12/17 20:20:19;;;;;;;72.50;19.40;;;;;;;-5.07;97.85;99874.30;213705;1308;22534;-75
2022/12/17 20:25:20;;;;;;;68.30;18.20;;;;;;;-5.02;97.98;99878.69;213681;1312;25503;-75
2022/12/17 20:30:22;;;;;;;67.20;18.80;;;;;;;-4.99;97.78;99881.13;213846;1312;23786;-74
2022/12/17 20:35:25;;;;;;;67.40;17.30;;;;;;;-4.95;97.93;99882.86;213719;1312;23091;-79
2022/12/17 20:40:27;;;;;;;53.00;17.30;;;;;;;-4.93;97.74;99894.50;213445;1312;23139;-77
2022/12/17 20:45:29;;;;;;;68.00;17.80;;;;;;;-4.96;97.72;99900.73;213867;1298;22725;-76
2022/12/17 20:50:31;;;;;;;58.40;19.10;;;;;;;-4.97;97.69;99901.73;213670;1312;24387;-75
2022/12/17 20:55:33;;;;;;;58.40;17.40;;;;;;;-4.98;97.67;99904.08;213726;1311;25474;-77
2022/12/17 21:00:35;;;;;;;67.40;19.80;;;;;;;-4.97;97.76;99905.55;213485;1312;23144;-76
2022/12/17 21:05:39;;;;;;;63.30;19.00;;;;;;;-4.95;97.88;99914.58;213595;1312;25669;-75
2022/12/17 21:10:40;;;;;;;68.40;19.60;;;;;;;-4.95;97.67;99924.70;213827;1305;22900;-76
2022/12/17 21:15:48;;;;;;;75.20;19.50;;;;;;;-4.96;97.78;99929.48;213720;1311;22555;-76
2022/12/17 21:21:01;;;;;;;62.00;18.00;;;;;;;-4.95;97.53;99934.97;213622;1304;22491;-75
2022/12/17 21:26:12;;;;;;;72.60;19.40;;;;;;;-4.98;97.47;99951.13;213655;1312;24367;-75
2022/12/17 21:31:15;;;;;;;72.40;20.00;;;;;;;-4.99;97.48;99955.92;213749;1312;24282;-76
2022/12/17 21:36:20;;;;;;;54.60;16.80;;;;;;;-4.96;97.63;99964.30;213698;1312;24356;-75
2022/12/17 21:41:25;;;;;;;68.00;17.60;;;;;;;-4.91;97.76;99973.37;213746;1312;25515;-75
2022/12/17 21:46:28;;;;;;;69.50;18.20;;;;;;;-4.88;97.63;99984.56;213944;1312;22876;-75
2022/12/17 21:51:31;;;;;;;68.10;18.30;;;;;;;-4.84;97.79;99991.52;213789;1312;22505;-75
2022/12/17 21:56:33;;;;;;;72.80;21.30;;;;;;;-4.83;97.63;99991.00;213643;1312;22578;-76
2022/12/17 22:01:35;;;;;;;76.60;20.80;;;;;;;-4.81;97.72;99996.90;213835;1312;22577;-75
2022/12/17 22:06:37;;;;;;;76.10;20.40;;;;;;;-4.77;97.81;100003.02;213671;1312;22632;-76
2022/12/17 22:14:01;;;;;;;70.30;18.10;;;;;;;-4.75;97.70;100004.36;213840;1306;22536;-76
2022/12/17 22:17:15;;;;;;;53.40;17.30;;;;;;;-4.72;97.76;100007.00;213859;1312;22697;-75
2022/12/17 22:22:17;;;;;;;55.90;16.80;;;;;;;-4.71;97.75;100008.11;213849;1312;22617;-76
2022/12/17 22:27:19;;;;;;;51.70;16.60;;;;;;;-4.73;97.42;100015.27;213883;1304;22653;-76
2022/12/17 22:37:44;;;;;;;63.40;17.10;;;;;;;-4.76;97.46;100016.00;213741;1307;22726;-76
2022/12/17 22:48:49;;;;;;;59.00;17.50;;;;;;;-4.79;97.25;100032.65;213709;1312;25576;-76
2022/12/17 22:53:52;;;;;;;66.20;17.20;;;;;;;-4.77;97.38;100037.31;213818;1312;23965;-76
2022/12/17 22:58:55;;;;;;;49.60;16.50;;;;;;;-4.78;97.11;100039.91;213741;1312;22802;-74
2022/12/17 23:03:59;;;;;;;59.60;16.70;;;;;;;-4.81;97.20;100046.37;213658;1312;24353;-75
2022/12/17 23:09:00;;;;;;;55.60;16.70;;;;;;;-4.80;97.34;100048.67;213782;1312;24341;-75
2022/12/17 23:14:04;;;;;;;53.80;16.50;;;;;;;-4.78;97.27;100062.20;213708;1312;24553;-76
2022/12/17 23:19:07;;;;;;;43.20;13.20;;;;;;;-4.78;97.22;100068.30;213431;1312;23029;-77
2022/12/17 23:24:09;;;;;;;54.10;17.50;;;;;;;-4.82;97.26;100071.31;213758;1312;24259;-76
2022/12/17 23:29:13;;;;;;;48.50;15.00;;;;;;;-4.84;97.06;100076.73;213697;1312;22540;-74
2022/12/17 23:34:20;;;;;;;51.50;15.30;;;;;;;-4.85;97.21;100076.16;213731;1312;23841;-75
2022/12/17 23:39:22;;;;;;;39.70;13.10;;;;;;;-4.86;97.11;100079.85;213559;1312;22625;-75
2022/12/17 23:44:24;;;;;;;53.50;15.20;;;;;;;-4.85;97.26;100088.19;213873;1310;23901;-74
2022/12/17 23:49:26;;;;;;;56.00;16.40;;;;;;;-4.84;97.15;100094.27;213948;1312;22514;-76
2022/12/17 23:54:27;;;;;;;43.70;14.70;;;;;;;-4.84;97.07;100103.90;213839;1312;22526;-75
2022/12/17 23:59:29;;;;;;;52.30;15.40;;;;;;;-4.83;97.18;100105.19;213959;1312;23007;-75
